TimeCST,TemperatureF,Dew PointF,Humidity,Sea Level PressureIn,VisibilityMPH,Wind Direction,Wind SpeedMPH,Gust SpeedMPH,PrecipitationIn,Events,Conditions,WindDirDegrees,DateUTC
12:54 AM,19.9,10.0,65,30.25,10.0,SSE,10.4,-,N/A,,Clear,160,2009-01-01 06:54:00
1:54 AM,19.4,10.4,68,30.18,10.0,SSE,12.7,-,N/A,,Clear,150,2009-01-01 07:54:00
2:54 AM,19.9,10.9,68,30.18,10.0,SSE,12.7,20.7,N/A,,Clear,150,2009-01-01 08:54:00
3:54 AM,19.9,12.0,71,30.11,10.0,SSE,19.6,28.8,N/A,,Clear,150,2009-01-01 09:54:00
4:54 AM,19.9,12.0,71,30.12,10.0,SSE,10.4,-,N/A,,Clear,160,2009-01-01 10:54:00
5:54 AM,19.9,12.0,71,30.12,10.0,SSE,8.1,-,N/A,,Clear,160,2009-01-01 11:54:00
6:54 AM,21.0,12.9,71,30.13,10.0,SSE,10.4,-,N/A,,Clear,160,2009-01-01 12:54:00
7:54 AM,21.0,12.9,71,30.08,10.0,South,17.3,-,N/A,,Clear,170,2009-01-01 13:54:00
8:54 AM,24.1,14.0,65,30.06,10.0,South,12.7,24.2,N/A,,Clear,170,2009-01-01 14:54:00
9:54 AM,26.1,15.1,63,30.04,10.0,South,12.7,24.2,N/A,,Clear,190,2009-01-01 15:54:00
10:54 AM,28.9,16.0,58,29.99,10.0,South,18.4,24.2,N/A,,Clear,170,2009-01-01 16:54:00
11:54 AM,32.0,16.0,52,29.94,10.0,South,12.7,21.9,N/A,,Clear,170,2009-01-01 17:54:00
12:54 PM,33.1,18.0,54,29.89,10.0,South,10.4,-,N/A,,Clear,190,2009-01-01 18:54:00
1:54 PM,37.0,19.9,50,29.87,10.0,SSW,11.5,-,N/A,,Clear,200,2009-01-01 19:54:00
2:54 PM,37.0,19.9,50,29.86,10.0,SW,10.4,-,N/A,,Clear,220,2009-01-01 20:54:00
3:54 PM,36.0,21.9,57,29.86,10.0,SW,3.5,-,N/A,,Clear,220,2009-01-01 21:54:00
4:54 PM,35.1,21.9,59,29.88,10.0,Calm,Calm,-,N/A,,Clear,0,2009-01-01 22:54:00
5:54 PM,33.1,23.0,66,29.86,10.0,South,3.5,-,N/A,,Clear,190,2009-01-01 23:54:00
6:54 PM,33.1,23.0,66,29.87,10.0,SSW,4.6,-,N/A,,Partly Cloudy,200,2009-01-02 00:54:00
7:54 PM,32.0,21.0,64,29.89,10.0,West,5.8,-,N/A,,Clear,260,2009-01-02 01:54:00
8:54 PM,32.0,19.9,61,29.88,10.0,WSW,5.8,-,N/A,,Clear,240,2009-01-02 02:54:00
9:54 PM,30.0,19.9,66,29.87,10.0,WSW,6.9,-,N/A,,Clear,250,2009-01-02 03:54:00
10:54 PM,30.0,19.9,66,29.88,10.0,WSW,3.5,-,N/A,,Clear,240,2009-01-02 04:54:00
11:54 PM,28.9,19.9,69,29.89,10.0,West,6.9,-,N/A,,Clear,280,2009-01-02 05:54:00